sensor_id;sensor_type;location;lat;lon;timestamp;P1;durP1;ratioP1;P2;durP2;ratioP2
1436;SDS011;712;51.026;13.792;2024-03-02T00:00:12;39.65;;;23.30;;
1436;SDS011;712;51.026;13.792;2024-03-02T00:02:41;41.55;;;23.27;;
1436;SDS011;712;51.026;13.792;2024-03-02T00:05:06;38.75;;;22.98;;
1436;SDS011;712;51.026;13.792;2024-03-02T00:07:32;37.70;;;22.45;;
1436;SDS011;712;51.026;13.792;2024-03-02T00:09:57;42.85;;;24.60;;
1436;SDS011;712;51.026;13.792;2024-03-02T00:12:22;41.37;;;22.70;;
1436;SDS011;712;51.026;13.792;2024-03-02T00:14:48;42.20;;;23.73;;
1436;SDS011;712;51.026;13.792;2024-03-02T00:17:15;43.83;;;23.85;;
1436;SDS011;712;51.026;13.792;2024-03-02T00:19:44;40.50;;;23.02;;
1436;SDS011;712;51.026;13.792;2024-03-02T00:22:09;38.88;;;22.83;;
1436;SDS011;712;51.026;13.792;2024-03-02T00:24:34;40.40;;;21.92;;
1436;SDS011;712;51.026;13.792;2024-03-02T00:27:00;41.83;;;23.85;;
1436;SDS011;712;51.026;13.792;2024-03-02T00:29:26;40.42;;;22.70;;
1436;SDS011;712;51.026;13.792;2024-03-02T00:31:52;39.55;;;20.70;;
1436;SDS011;712;51.026;13.792;2024-03-02T00:34:18;37.25;;;21.95;;
1436;SDS011;712;51.026;13.792;2024-03-02T00:36:43;38.63;;;22.93;;
1436;SDS011;712;51.026;13.792;2024-03-02T00:39:11;38.20;;;23.25;;
1436;SDS011;712;51.026;13.792;2024-03-02T00:41:38;35.72;;;21.73;;
1436;SDS011;712;51.026;13.792;2024-03-02T00:44:15;36.92;;;21.15;;
1436;SDS011;712;51.026;13.792;2024-03-02T00:46:41;37.75;;;21.42;;
1436;SDS011;712;51.026;13.792;2024-03-02T00:49:17;37.25;;;22.02;;
1436;SDS011;712;51.026;13.792;2024-03-02T00:51:45;38.45;;;22.02;;
1436;SDS011;712;51.026;13.792;2024-03-02T00:54:11;36.20;;;21.88;;
1436;SDS011;712;51.026;13.792;2024-03-02T00:56:36;40.73;;;22.13;;
1436;SDS011;712;51.026;13.792;2024-03-02T00:59:01;38.60;;;21.43;;
1436;SDS011;712;51.026;13.792;2024-03-02T01:01:26;37.80;;;22.10;;
1436;SDS011;712;51.026;13.792;2024-03-02T01:03:52;46.10;;;24.63;;
1436;SDS011;712;51.026;13.792;2024-03-02T01:06:17;39.40;;;22.25;;
1436;SDS011;712;51.026;13.792;2024-03-02T01:08:43;37.13;;;22.00;;
1436;SDS011;712;51.026;13.792;2024-03-02T01:11:08;38.15;;;22.25;;
1436;SDS011;712;51.026;13.792;2024-03-02T01:13:34;37.10;;;22.07;;
1436;SDS011;712;51.026;13.792;2024-03-02T01:15:59;41.63;;;24.27;;
1436;SDS011;712;51.026;13.792;2024-03-02T01:18:24;40.15;;;22.77;;
1436;SDS011;712;51.026;13.792;2024-03-02T01:20:50;42.47;;;23.27;;
1436;SDS011;712;51.026;13.792;2024-03-02T01:23:20;39.60;;;23.02;;
1436;SDS011;712;51.026;13.792;2024-03-02T01:25:46;41.75;;;23.25;;
1436;SDS011;712;51.026;13.792;2024-03-02T01:28:12;36.72;;;21.52;;
1436;SDS011;712;51.026;13.792;2024-03-02T01:30:37;40.88;;;23.88;;
1436;SDS011;712;51.026;13.792;2024-03-02T01:33:03;38.05;;;21.95;;
1436;SDS011;712;51.026;13.792;2024-03-02T01:35:30;34.83;;;20.35;;
1436;SDS011;712;51.026;13.792;2024-03-02T01:37:55;39.83;;;23.10;;
1436;SDS011;712;51.026;13.792;2024-03-02T01:40:20;36.40;;;22.17;;
1436;SDS011;712;51.026;13.792;2024-03-02T01:42:45;40.17;;;23.23;;
1436;SDS011;712;51.026;13.792;2024-03-02T01:45:10;38.67;;;22.97;;
1436;SDS011;712;51.026;13.792;2024-03-02T01:47:36;43.22;;;24.27;;
1436;SDS011;712;51.026;13.792;2024-03-02T01:50:01;45.90;;;25.92;;
1436;SDS011;712;51.026;13.792;2024-03-02T01:52:27;49.47;;;26.77;;
1436;SDS011;712;51.026;13.792;2024-03-02T01:54:52;44.30;;;22.80;;
1436;SDS011;712;51.026;13.792;2024-03-02T01:57:17;44.95;;;24.60;;
1436;SDS011;712;51.026;13.792;2024-03-02T01:59:42;41.92;;;24.52;;
1436;SDS011;712;51.026;13.792;2024-03-02T02:02:08;38.95;;;22.23;;
1436;SDS011;712;51.026;13.792;2024-03-02T02:04:33;43.33;;;24.57;;
1436;SDS011;712;51.026;13.792;2024-03-02T02:06:58;39.45;;;22.80;;
1436;SDS011;712;51.026;13.792;2024-03-02T02:09:24;39.45;;;22.42;;
1436;SDS011;712;51.026;13.792;2024-03-02T02:11:50;48.13;;;27.33;;
1436;SDS011;712;51.026;13.792;2024-03-02T02:14:15;52.45;;;28.52;;
1436;SDS011;712;51.026;13.792;2024-03-02T02:16:40;50.70;;;27.15;;
1436;SDS011;712;51.026;13.792;2024-03-02T02:19:05;49.00;;;27.50;;
1436;SDS011;712;51.026;13.792;2024-03-02T02:21:30;49.80;;;27.40;;
1436;SDS011;712;51.026;13.792;2024-03-02T02:23:56;51.20;;;26.50;;
1436;SDS011;712;51.026;13.792;2024-03-02T02:26:21;53.25;;;26.58;;
1436;SDS011;712;51.026;13.792;2024-03-02T02:28:46;51.27;;;26.80;;
1436;SDS011;712;51.026;13.792;2024-03-02T02:31:14;49.63;;;24.42;;
1436;SDS011;712;51.026;13.792;2024-03-02T02:33:39;52.83;;;27.50;;
1436;SDS011;712;51.026;13.792;2024-03-02T02:36:05;54.55;;;27.60;;
1436;SDS011;712;51.026;13.792;2024-03-02T02:38:30;47.73;;;24.93;;
1436;SDS011;712;51.026;13.792;2024-03-02T02:40:55;54.10;;;28.38;;
1436;SDS011;712;51.026;13.792;2024-03-02T02:43:21;49.10;;;24.87;;
1436;SDS011;712;51.026;13.792;2024-03-02T02:45:46;52.63;;;27.10;;
1436;SDS011;712;51.026;13.792;2024-03-02T02:48:11;55.95;;;27.00;;
1436;SDS011;712;51.026;13.792;2024-03-02T02:50:36;49.33;;;25.93;;
1436;SDS011;712;51.026;13.792;2024-03-02T02:53:01;54.00;;;26.33;;
1436;SDS011;712;51.026;13.792;2024-03-02T02:55:26;55.97;;;28.30;;
1436;SDS011;712;51.026;13.792;2024-03-02T02:57:52;58.47;;;29.03;;
1436;SDS011;712;51.026;13.792;2024-03-02T03:00:17;59.35;;;28.73;;
1436;SDS011;712;51.026;13.792;2024-03-02T03:02:45;52.47;;;26.67;;
1436;SDS011;712;51.026;13.792;2024-03-02T03:05:12;51.70;;;25.88;;
1436;SDS011;712;51.026;13.792;2024-03-02T03:07:41;59.03;;;26.92;;
1436;SDS011;712;51.026;13.792;2024-03-02T03:10:07;61.65;;;27.38;;
1436;SDS011;712;51.026;13.792;2024-03-02T03:12:32;52.85;;;25.13;;
1436;SDS011;712;51.026;13.792;2024-03-02T03:14:58;55.40;;;26.10;;
1436;SDS011;712;51.026;13.792;2024-03-02T03:17:23;59.93;;;27.87;;
1436;SDS011;712;51.026;13.792;2024-03-02T03:19:48;56.80;;;25.80;;
1436;SDS011;712;51.026;13.792;2024-03-02T03:22:14;58.92;;;27.33;;
1436;SDS011;712;51.026;13.792;2024-03-02T03:24:39;57.20;;;26.42;;
1436;SDS011;712;51.026;13.792;2024-03-02T03:27:04;59.63;;;25.98;;
1436;SDS011;712;51.026;13.792;2024-03-02T03:29:29;64.90;;;29.63;;
1436;SDS011;712;51.026;13.792;2024-03-02T03:31:54;64.80;;;29.93;;
1436;SDS011;712;51.026;13.792;2024-03-02T03:34:19;68.78;;;29.70;;
1436;SDS011;712;51.026;13.792;2024-03-02T03:36:45;57.80;;;26.08;;
1436;SDS011;712;51.026;13.792;2024-03-02T03:39:10;66.13;;;28.65;;
1436;SDS011;712;51.026;13.792;2024-03-02T03:41:35;69.90;;;28.77;;
1436;SDS011;712;51.026;13.792;2024-03-02T03:44:00;66.20;;;27.90;;
1436;SDS011;712;51.026;13.792;2024-03-02T03:46:26;67.50;;;28.58;;
1436;SDS011;712;51.026;13.792;2024-03-02T03:48:51;72.22;;;29.48;;
1436;SDS011;712;51.026;13.792;2024-03-02T03:51:16;69.27;;;27.97;;
1436;SDS011;712;51.026;13.792;2024-03-02T03:53:41;57.15;;;25.52;;
1436;SDS011;712;51.026;13.792;2024-03-02T03:56:06;62.00;;;25.87;;
1436;SDS011;712;51.026;13.792;2024-03-02T03:58:31;60.03;;;26.97;;
1436;SDS011;712;51.026;13.792;2024-03-02T04:00:57;65.78;;;27.90;;
1436;SDS011;712;51.026;13.792;2024-03-02T04:03:22;69.18;;;28.17;;
1436;SDS011;712;51.026;13.792;2024-03-02T04:05:47;63.13;;;26.13;;
1436;SDS011;712;51.026;13.792;2024-03-02T04:08:12;74.63;;;31.07;;
1436;SDS011;712;51.026;13.792;2024-03-02T04:10:37;75.30;;;27.50;;
1436;SDS011;712;51.026;13.792;2024-03-02T04:13:03;72.85;;;30.65;;
1436;SDS011;712;51.026;13.792;2024-03-02T04:15:28;77.13;;;30.53;;
1436;SDS011;712;51.026;13.792;2024-03-02T04:17:53;71.87;;;26.80;;
1436;SDS011;712;51.026;13.792;2024-03-02T04:20:18;66.70;;;26.90;;
1436;SDS011;712;51.026;13.792;2024-03-02T04:22:43;63.55;;;26.67;;
1436;SDS011;712;51.026;13.792;2024-03-02T04:25:09;69.67;;;27.73;;
1436;SDS011;712;51.026;13.792;2024-03-02T04:27:34;63.50;;;25.80;;
1436;SDS011;712;51.026;13.792;2024-03-02T04:30:00;59.35;;;24.50;;
1436;SDS011;712;51.026;13.792;2024-03-02T04:32:25;65.18;;;27.83;;
1436;SDS011;712;51.026;13.792;2024-03-02T04:34:50;73.05;;;29.40;;
1436;SDS011;712;51.026;13.792;2024-03-02T04:37:15;72.85;;;28.75;;
1436;SDS011;712;51.026;13.792;2024-03-02T04:39:41;72.73;;;28.47;;
1436;SDS011;712;51.026;13.792;2024-03-02T04:42:06;69.50;;;28.42;;
1436;SDS011;712;51.026;13.792;2024-03-02T04:44:31;70.60;;;28.67;;
1436;SDS011;712;51.026;13.792;2024-03-02T04:46:56;63.30;;;25.00;;
1436;SDS011;712;51.026;13.792;2024-03-02T04:49:21;67.17;;;27.83;;
1436;SDS011;712;51.026;13.792;2024-03-02T04:51:46;64.90;;;26.10;;
1436;SDS011;712;51.026;13.792;2024-03-02T04:54:11;74.82;;;30.08;;
1436;SDS011;712;51.026;13.792;2024-03-02T04:56:39;66.20;;;27.52;;
1436;SDS011;712;51.026;13.792;2024-03-02T04:59:09;63.97;;;26.08;;
1436;SDS011;712;51.026;13.792;2024-03-02T05:01:34;59.80;;;25.05;;
1436;SDS011;712;51.026;13.792;2024-03-02T05:03:59;59.10;;;25.23;;
1436;SDS011;712;51.026;13.792;2024-03-02T05:06:24;61.20;;;25.60;;
1436;SDS011;712;51.026;13.792;2024-03-02T05:08:50;67.67;;;28.30;;
1436;SDS011;712;51.026;13.792;2024-03-02T05:11:15;58.45;;;24.17;;
1436;SDS011;712;51.026;13.792;2024-03-02T05:13:58;69.03;;;26.73;;
1436;SDS011;712;51.026;13.792;2024-03-02T05:16:24;61.47;;;24.80;;
1436;SDS011;712;51.026;13.792;2024-03-02T05:18:49;58.20;;;25.15;;
1436;SDS011;712;51.026;13.792;2024-03-02T05:21:14;57.25;;;25.50;;
1436;SDS011;712;51.026;13.792;2024-03-02T05:23:39;58.30;;;24.67;;
1436;SDS011;712;51.026;13.792;2024-03-02T05:26:04;56.63;;;24.13;;
1436;SDS011;712;51.026;13.792;2024-03-02T05:28:29;62.30;;;25.60;;
1436;SDS011;712;51.026;13.792;2024-03-02T05:30:55;54.47;;;23.27;;
1436;SDS011;712;51.026;13.792;2024-03-02T05:33:20;55.65;;;23.50;;
1436;SDS011;712;51.026;13.792;2024-03-02T05:35:47;55.10;;;24.27;;
1436;SDS011;712;51.026;13.792;2024-03-02T05:38:12;47.03;;;22.98;;
1436;SDS011;712;51.026;13.792;2024-03-02T05:40:37;47.33;;;22.00;;
1436;SDS011;712;51.026;13.792;2024-03-02T05:43:03;48.80;;;21.90;;
1436;SDS011;712;51.026;13.792;2024-03-02T05:45:28;52.80;;;24.10;;
1436;SDS011;712;51.026;13.792;2024-03-02T05:47:53;50.23;;;21.57;;
1436;SDS011;712;51.026;13.792;2024-03-02T05:50:18;48.05;;;23.17;;
1436;SDS011;712;51.026;13.792;2024-03-02T05:52:45;44.78;;;21.48;;
1436;SDS011;712;51.026;13.792;2024-03-02T05:55:10;49.53;;;22.67;;
1436;SDS011;712;51.026;13.792;2024-03-02T05:57:35;47.40;;;20.73;;
1436;SDS011;712;51.026;13.792;2024-03-02T06:00:09;43.38;;;21.30;;
1436;SDS011;712;51.026;13.792;2024-03-02T06:02:34;51.13;;;24.07;;
1436;SDS011;712;51.026;13.792;2024-03-02T06:05:00;44.63;;;21.65;;
1436;SDS011;712;51.026;13.792;2024-03-02T06:07:25;52.33;;;24.47;;
1436;SDS011;712;51.026;13.792;2024-03-02T06:09:50;50.72;;;22.85;;
1436;SDS011;712;51.026;13.792;2024-03-02T06:12:17;52.00;;;23.15;;
1436;SDS011;712;51.026;13.792;2024-03-02T06:14:42;52.33;;;23.77;;
1436;SDS011;712;51.026;13.792;2024-03-02T06:17:08;53.00;;;22.80;;
1436;SDS011;712;51.026;13.792;2024-03-02T06:19:33;47.72;;;21.75;;
1436;SDS011;712;51.026;13.792;2024-03-02T06:21:58;46.92;;;22.08;;
1436;SDS011;712;51.026;13.792;2024-03-02T06:24:23;51.88;;;23.85;;
1436;SDS011;712;51.026;13.792;2024-03-02T06:26:48;52.20;;;22.88;;
1436;SDS011;712;51.026;13.792;2024-03-02T06:29:13;44.85;;;20.58;;
1436;SDS011;712;51.026;13.792;2024-03-02T06:31:38;50.42;;;22.48;;
1436;SDS011;712;51.026;13.792;2024-03-02T06:34:04;49.65;;;22.98;;
1436;SDS011;712;51.026;13.792;2024-03-02T06:36:29;49.05;;;23.35;;
1436;SDS011;712;51.026;13.792;2024-03-02T06:38:54;51.08;;;23.35;;
1436;SDS011;712;51.026;13.792;2024-03-02T06:41:20;52.78;;;24.10;;
1436;SDS011;712;51.026;13.792;2024-03-02T06:43:45;50.80;;;22.92;;
1436;SDS011;712;51.026;13.792;2024-03-02T06:46:10;49.20;;;21.53;;
1436;SDS011;712;51.026;13.792;2024-03-02T06:48:39;52.05;;;23.42;;
1436;SDS011;712;51.026;13.792;2024-03-02T06:51:04;47.38;;;20.98;;
1436;SDS011;712;51.026;13.792;2024-03-02T06:53:30;49.65;;;22.55;;
1436;SDS011;712;51.026;13.792;2024-03-02T06:55:56;47.67;;;21.02;;
1436;SDS011;712;51.026;13.792;2024-03-02T06:58:21;49.95;;;21.90;;
1436;SDS011;712;51.026;13.792;2024-03-02T07:00:46;54.22;;;23.60;;
1436;SDS011;712;51.026;13.792;2024-03-02T07:03:13;50.92;;;21.48;;
1436;SDS011;712;51.026;13.792;2024-03-02T07:05:38;52.03;;;22.60;;
1436;SDS011;712;51.026;13.792;2024-03-02T07:08:04;45.23;;;19.53;;
1436;SDS011;712;51.026;13.792;2024-03-02T07:10:30;48.88;;;21.73;;
1436;SDS011;712;51.026;13.792;2024-03-02T07:12:55;50.88;;;22.05;;
1436;SDS011;712;51.026;13.792;2024-03-02T07:15:20;50.20;;;21.63;;
1436;SDS011;712;51.026;13.792;2024-03-02T07:17:52;49.55;;;21.80;;
1436;SDS011;712;51.026;13.792;2024-03-02T07:20:17;52.60;;;21.20;;
1436;SDS011;712;51.026;13.792;2024-03-02T07:22:42;56.70;;;22.83;;
1436;SDS011;712;51.026;13.792;2024-03-02T07:25:08;49.60;;;22.42;;
1436;SDS011;712;51.026;13.792;2024-03-02T07:27:33;60.45;;;23.30;;
1436;SDS011;712;51.026;13.792;2024-03-02T07:30:01;54.60;;;23.98;;
1436;SDS011;712;51.026;13.792;2024-03-02T07:32:26;54.70;;;23.25;;
1436;SDS011;712;51.026;13.792;2024-03-02T07:34:51;53.90;;;22.67;;
1436;SDS011;712;51.026;13.792;2024-03-02T07:37:16;48.15;;;21.67;;
1436;SDS011;712;51.026;13.792;2024-03-02T07:39:42;48.78;;;22.30;;
1436;SDS011;712;51.026;13.792;2024-03-02T07:42:08;50.55;;;22.27;;
1436;SDS011;712;51.026;13.792;2024-03-02T07:44:34;50.08;;;23.02;;
1436;SDS011;712;51.026;13.792;2024-03-02T07:46:59;58.78;;;23.42;;
1436;SDS011;712;51.026;13.792;2024-03-02T07:49:26;57.67;;;24.47;;
1436;SDS011;712;51.026;13.792;2024-03-02T07:51:51;62.13;;;26.38;;
1436;SDS011;712;51.026;13.792;2024-03-02T07:54:16;59.93;;;23.40;;
1436;SDS011;712;51.026;13.792;2024-03-02T07:56:41;57.67;;;23.77;;
1436;SDS011;712;51.026;13.792;2024-03-02T07:59:07;59.10;;;23.83;;
1436;SDS011;712;51.026;13.792;2024-03-02T08:01:32;62.05;;;25.23;;
1436;SDS011;712;51.026;13.792;2024-03-02T08:03:58;62.27;;;25.73;;
1436;SDS011;712;51.026;13.792;2024-03-02T08:06:24;64.45;;;26.23;;
1436;SDS011;712;51.026;13.792;2024-03-02T08:08:52;63.75;;;26.70;;
1436;SDS011;712;51.026;13.792;2024-03-02T08:11:17;66.07;;;26.20;;
1436;SDS011;712;51.026;13.792;2024-03-02T08:13:42;64.10;;;26.37;;
1436;SDS011;712;51.026;13.792;2024-03-02T08:16:07;64.90;;;26.50;;
1436;SDS011;712;51.026;13.792;2024-03-02T08:18:34;63.60;;;23.80;;
1436;SDS011;712;51.026;13.792;2024-03-02T08:20:59;64.45;;;24.08;;
1436;SDS011;712;51.026;13.792;2024-03-02T08:23:24;63.47;;;23.70;;
1436;SDS011;712;51.026;13.792;2024-03-02T08:25:49;52.92;;;21.80;;
1436;SDS011;712;51.026;13.792;2024-03-02T08:28:15;50.35;;;21.55;;
1436;SDS011;712;51.026;13.792;2024-03-02T08:30:40;54.00;;;22.13;;
1436;SDS011;712;51.026;13.792;2024-03-02T08:33:05;47.38;;;21.00;;
1436;SDS011;712;51.026;13.792;2024-03-02T08:35:30;50.33;;;21.23;;
1436;SDS011;712;51.026;13.792;2024-03-02T08:38:00;48.95;;;20.90;;
1436;SDS011;712;51.026;13.792;2024-03-02T08:40:25;48.92;;;19.77;;
1436;SDS011;712;51.026;13.792;2024-03-02T08:42:51;47.30;;;18.95;;
1436;SDS011;712;51.026;13.792;2024-03-02T08:45:17;45.10;;;19.40;;
1436;SDS011;712;51.026;13.792;2024-03-02T08:47:42;47.37;;;19.37;;
1436;SDS011;712;51.026;13.792;2024-03-02T08:50:07;51.40;;;21.05;;
1436;SDS011;712;51.026;13.792;2024-03-02T08:52:33;48.42;;;20.55;;
1436;SDS011;712;51.026;13.792;2024-03-02T08:54:58;47.50;;;20.07;;
1436;SDS011;712;51.026;13.792;2024-03-02T08:57:23;46.45;;;20.05;;
1436;SDS011;712;51.026;13.792;2024-03-02T08:59:48;41.87;;;18.20;;
1436;SDS011;712;51.026;13.792;2024-03-02T09:02:14;40.47;;;18.10;;
1436;SDS011;712;51.026;13.792;2024-03-02T09:04:39;40.72;;;18.73;;
1436;SDS011;712;51.026;13.792;2024-03-02T09:07:04;43.43;;;19.33;;
1436;SDS011;712;51.026;13.792;2024-03-02T09:09:30;42.17;;;18.57;;
1436;SDS011;712;51.026;13.792;2024-03-02T09:11:56;45.13;;;19.50;;
1436;SDS011;712;51.026;13.792;2024-03-02T09:14:22;43.25;;;18.13;;
1436;SDS011;712;51.026;13.792;2024-03-02T09:16:48;42.05;;;19.45;;
1436;SDS011;712;51.026;13.792;2024-03-02T09:19:13;41.25;;;19.08;;
1436;SDS011;712;51.026;13.792;2024-03-02T09:21:38;42.60;;;19.77;;
1436;SDS011;712;51.026;13.792;2024-03-02T09:24:03;37.45;;;17.42;;
1436;SDS011;712;51.026;13.792;2024-03-02T09:26:29;38.95;;;17.95;;
1436;SDS011;712;51.026;13.792;2024-03-02T09:28:54;40.23;;;19.40;;
1436;SDS011;712;51.026;13.792;2024-03-02T09:31:19;39.63;;;18.20;;
1436;SDS011;712;51.026;13.792;2024-03-02T09:33:44;43.72;;;18.90;;
1436;SDS011;712;51.026;13.792;2024-03-02T09:36:21;38.38;;;17.65;;
1436;SDS011;712;51.026;13.792;2024-03-02T09:38:47;36.85;;;18.33;;
1436;SDS011;712;51.026;13.792;2024-03-02T09:41:12;43.17;;;18.10;;
1436;SDS011;712;51.026;13.792;2024-03-02T09:43:38;38.22;;;17.10;;
1436;SDS011;712;51.026;13.792;2024-03-02T09:46:03;38.40;;;17.80;;
1436;SDS011;712;51.026;13.792;2024-03-02T09:48:28;45.90;;;20.07;;
1436;SDS011;712;51.026;13.792;2024-03-02T09:50:53;42.07;;;17.10;;
1436;SDS011;712;51.026;13.792;2024-03-02T09:53:19;38.57;;;18.07;;
1436;SDS011;712;51.026;13.792;2024-03-02T09:55:47;36.60;;;16.63;;
1436;SDS011;712;51.026;13.792;2024-03-02T09:58:12;37.53;;;16.83;;
1436;SDS011;712;51.026;13.792;2024-03-02T10:00:38;39.93;;;17.37;;
1436;SDS011;712;51.026;13.792;2024-03-02T10:03:03;41.07;;;18.40;;
1436;SDS011;712;51.026;13.792;2024-03-02T10:05:29;41.08;;;18.90;;
1436;SDS011;712;51.026;13.792;2024-03-02T10:07:58;40.53;;;18.38;;
1436;SDS011;712;51.026;13.792;2024-03-02T10:10:24;42.35;;;18.70;;
1436;SDS011;712;51.026;13.792;2024-03-02T10:12:59;45.53;;;19.58;;
1436;SDS011;712;51.026;13.792;2024-03-02T10:15:28;44.15;;;18.85;;
1436;SDS011;712;51.026;13.792;2024-03-02T10:17:53;41.13;;;18.00;;
1436;SDS011;712;51.026;13.792;2024-03-02T10:20:25;43.30;;;18.73;;
1436;SDS011;712;51.026;13.792;2024-03-02T10:22:50;46.13;;;18.98;;
1436;SDS011;712;51.026;13.792;2024-03-02T10:25:28;50.67;;;19.73;;
1436;SDS011;712;51.026;13.792;2024-03-02T10:27:56;44.78;;;19.08;;
1436;SDS011;712;51.026;13.792;2024-03-02T10:30:21;41.92;;;17.65;;
1436;SDS011;712;51.026;13.792;2024-03-02T10:32:46;39.47;;;17.42;;
1436;SDS011;712;51.026;13.792;2024-03-02T10:35:13;38.35;;;18.25;;
1436;SDS011;712;51.026;13.792;2024-03-02T10:37:39;42.25;;;19.08;;
1436;SDS011;712;51.026;13.792;2024-03-02T10:40:06;37.38;;;16.70;;
1436;SDS011;712;51.026;13.792;2024-03-02T10:42:33;37.72;;;16.77;;
1436;SDS011;712;51.026;13.792;2024-03-02T10:44:58;39.00;;;17.00;;
1436;SDS011;712;51.026;13.792;2024-03-02T10:47:23;39.33;;;18.10;;
1436;SDS011;712;51.026;13.792;2024-03-02T10:49:50;38.55;;;16.42;;
1436;SDS011;712;51.026;13.792;2024-03-02T10:52:16;36.72;;;16.85;;
1436;SDS011;712;51.026;13.792;2024-03-02T10:54:42;36.97;;;17.27;;
1436;SDS011;712;51.026;13.792;2024-03-02T10:57:08;38.85;;;17.75;;
1436;SDS011;712;51.026;13.792;2024-03-02T10:59:36;33.28;;;15.40;;
1436;SDS011;712;51.026;13.792;2024-03-02T11:02:04;26.70;;;11.88;;
1436;SDS011;712;51.026;13.792;2024-03-02T11:04:30;20.45;;;10.20;;
1436;SDS011;712;51.026;13.792;2024-03-02T11:07:02;27.08;;;13.38;;
1436;SDS011;712;51.026;13.792;2024-03-02T11:09:28;29.52;;;13.15;;
1436;SDS011;712;51.026;13.792;2024-03-02T11:14:43;19.77;;;10.40;;
1436;SDS011;712;51.026;13.792;2024-03-02T11:17:08;19.17;;;9.30;;
1436;SDS011;712;51.026;13.792;2024-03-02T11:19:33;16.58;;;8.20;;
1436;SDS011;712;51.026;13.792;2024-03-02T11:21:59;15.95;;;8.40;;
1436;SDS011;712;51.026;13.792;2024-03-02T11:26:57;15.35;;;7.97;;
1436;SDS011;712;51.026;13.792;2024-03-02T11:32:00;15.75;;;8.00;;
1436;SDS011;712;51.026;13.792;2024-03-02T11:34:35;14.70;;;7.60;;
1436;SDS011;712;51.026;13.792;2024-03-02T11:37:03;15.65;;;7.22;;
1436;SDS011;712;51.026;13.792;2024-03-02T11:39:29;15.02;;;7.32;;
1436;SDS011;712;51.026;13.792;2024-03-02T11:41:55;19.02;;;8.50;;
1436;SDS011;712;51.026;13.792;2024-03-02T11:44:20;17.77;;;7.38;;
1436;SDS011;712;51.026;13.792;2024-03-02T11:46:52;17.53;;;8.67;;
1436;SDS011;712;51.026;13.792;2024-03-02T11:49:30;17.13;;;8.05;;
1436;SDS011;712;51.026;13.792;2024-03-02T11:52:01;14.70;;;7.00;;
1436;SDS011;712;51.026;13.792;2024-03-02T11:54:27;17.70;;;8.50;;
1436;SDS011;712;51.026;13.792;2024-03-02T11:56:53;20.83;;;8.68;;
1436;SDS011;712;51.026;13.792;2024-03-02T11:59:19;18.40;;;9.38;;
1436;SDS011;712;51.026;13.792;2024-03-02T12:01:45;18.23;;;9.15;;
1436;SDS011;712;51.026;13.792;2024-03-02T12:04:11;18.92;;;7.68;;
1436;SDS011;712;51.026;13.792;2024-03-02T12:06:36;18.13;;;8.80;;
1436;SDS011;712;51.026;13.792;2024-03-02T12:09:02;16.67;;;7.63;;
1436;SDS011;712;51.026;13.792;2024-03-02T12:11:28;21.73;;;8.57;;
1436;SDS011;712;51.026;13.792;2024-03-02T12:13:53;19.10;;;7.95;;
1436;SDS011;712;51.026;13.792;2024-03-02T12:16:25;20.20;;;8.90;;
1436;SDS011;712;51.026;13.792;2024-03-02T12:18:51;24.85;;;9.48;;
1436;SDS011;712;51.026;13.792;2024-03-02T12:21:16;25.08;;;10.10;;
1436;SDS011;712;51.026;13.792;2024-03-02T12:23:41;20.53;;;9.60;;
1436;SDS011;712;51.026;13.792;2024-03-02T12:26:06;20.87;;;10.27;;
1436;SDS011;712;51.026;13.792;2024-03-02T12:28:32;22.83;;;10.13;;
1436;SDS011;712;51.026;13.792;2024-03-02T12:30:58;21.80;;;10.45;;
1436;SDS011;712;51.026;13.792;2024-03-02T12:33:23;21.90;;;10.73;;
1436;SDS011;712;51.026;13.792;2024-03-02T12:35:49;20.95;;;10.35;;
1436;SDS011;712;51.026;13.792;2024-03-02T12:38:14;23.50;;;10.10;;
1436;SDS011;712;51.026;13.792;2024-03-02T12:40:39;21.53;;;9.93;;
1436;SDS011;712;51.026;13.792;2024-03-02T12:43:05;20.88;;;10.35;;
1436;SDS011;712;51.026;13.792;2024-03-02T12:45:30;21.05;;;10.18;;
1436;SDS011;712;51.026;13.792;2024-03-02T12:47:55;21.98;;;9.73;;
1436;SDS011;712;51.026;13.792;2024-03-02T12:50:21;23.27;;;10.43;;
1436;SDS011;712;51.026;13.792;2024-03-02T12:52:52;18.67;;;9.30;;
1436;SDS011;712;51.026;13.792;2024-03-02T12:55:18;21.38;;;9.73;;
1436;SDS011;712;51.026;13.792;2024-03-02T12:57:44;17.52;;;9.02;;
1436;SDS011;712;51.026;13.792;2024-03-02T13:00:10;22.43;;;10.70;;
1436;SDS011;712;51.026;13.792;2024-03-02T13:02:36;19.63;;;9.68;;
1436;SDS011;712;51.026;13.792;2024-03-02T13:05:02;21.80;;;10.10;;
1436;SDS011;712;51.026;13.792;2024-03-02T13:07:27;23.58;;;10.93;;
1436;SDS011;712;51.026;13.792;2024-03-02T13:09:52;21.13;;;10.53;;
1436;SDS011;712;51.026;13.792;2024-03-02T13:12:20;23.88;;;10.65;;
1436;SDS011;712;51.026;13.792;2024-03-02T13:14:48;20.40;;;9.93;;
1436;SDS011;712;51.026;13.792;2024-03-02T13:17:13;21.73;;;9.63;;
1436;SDS011;712;51.026;13.792;2024-03-02T13:19:43;24.10;;;10.77;;
1436;SDS011;712;51.026;13.792;2024-03-02T13:22:08;21.15;;;9.98;;
1436;SDS011;712;51.026;13.792;2024-03-02T13:24:33;22.65;;;11.07;;
1436;SDS011;712;51.026;13.792;2024-03-02T13:26:58;19.60;;;10.03;;
1436;SDS011;712;51.026;13.792;2024-03-02T13:29:24;20.77;;;10.77;;
1436;SDS011;712;51.026;13.792;2024-03-02T13:31:50;21.30;;;11.07;;
1436;SDS011;712;51.026;13.792;2024-03-02T13:34:16;20.27;;;9.20;;
1436;SDS011;712;51.026;13.792;2024-03-02T13:36:41;24.15;;;10.32;;
1436;SDS011;712;51.026;13.792;2024-03-02T13:39:06;22.67;;;10.47;;
1436;SDS011;712;51.026;13.792;2024-03-02T13:41:34;22.23;;;10.00;;
1436;SDS011;712;51.026;13.792;2024-03-02T13:43:59;17.47;;;8.23;;
1436;SDS011;712;51.026;13.792;2024-03-02T13:46:26;19.65;;;9.48;;
1436;SDS011;712;51.026;13.792;2024-03-02T13:48:51;20.07;;;9.87;;
1436;SDS011;712;51.026;13.792;2024-03-02T13:51:17;19.05;;;9.18;;
1436;SDS011;712;51.026;13.792;2024-03-02T13:53:42;16.38;;;8.65;;
1436;SDS011;712;51.026;13.792;2024-03-02T13:56:07;18.67;;;9.38;;
1436;SDS011;712;51.026;13.792;2024-03-02T13:58:32;18.55;;;8.93;;
1436;SDS011;712;51.026;13.792;2024-03-02T14:00:57;16.33;;;8.73;;
1436;SDS011;712;51.026;13.792;2024-03-02T14:03:23;18.70;;;8.98;;
1436;SDS011;712;51.026;13.792;2024-03-02T14:05:48;18.00;;;10.60;;
1436;SDS011;712;51.026;13.792;2024-03-02T14:08:15;22.88;;;10.45;;
1436;SDS011;712;51.026;13.792;2024-03-02T14:10:40;25.10;;;12.70;;
1436;SDS011;712;51.026;13.792;2024-03-02T14:13:07;25.35;;;12.05;;
1436;SDS011;712;51.026;13.792;2024-03-02T14:15:33;23.27;;;11.65;;
1436;SDS011;712;51.026;13.792;2024-03-02T14:17:58;22.87;;;11.63;;
1436;SDS011;712;51.026;13.792;2024-03-02T14:20:23;22.03;;;12.23;;
1436;SDS011;712;51.026;13.792;2024-03-02T14:22:48;22.03;;;11.60;;
1436;SDS011;712;51.026;13.792;2024-03-02T14:25:14;21.88;;;11.40;;
1436;SDS011;712;51.026;13.792;2024-03-02T14:27:39;22.03;;;11.27;;
1436;SDS011;712;51.026;13.792;2024-03-02T14:30:04;19.70;;;10.27;;
1436;SDS011;712;51.026;13.792;2024-03-02T14:32:30;21.00;;;11.32;;
1436;SDS011;712;51.026;13.792;2024-03-02T14:34:55;20.95;;;11.60;;
1436;SDS011;712;51.026;13.792;2024-03-02T14:37:20;27.07;;;11.80;;
1436;SDS011;712;51.026;13.792;2024-03-02T14:39:46;24.05;;;10.60;;
1436;SDS011;712;51.026;13.792;2024-03-02T14:42:11;23.70;;;10.57;;
1436;SDS011;712;51.026;13.792;2024-03-02T14:44:36;20.13;;;10.18;;
1436;SDS011;712;51.026;13.792;2024-03-02T14:47:02;21.88;;;11.20;;
1436;SDS011;712;51.026;13.792;2024-03-02T14:49:29;23.10;;;10.93;;